Amherst, Ohio
Current Conditions -  °F | °C
As of 9:53 AM on Saturday 25 Oct 2014 (Local Time) from KLPR Reporting Station
Overcast Overcast  
Wind Chill: 54°   Ceiling: 5500
Heat Index: 54°   Visibility: 7mi
Dew Point: 50°   Wind: 10mph
Humidity: 86%   Direction: 230°SW
Pressure: 29.88"   Gusts: NA
Location:  41.41°N, 82.24°W
Report Text: KLPR 251353Z AUTO 23009KT 7SM FEW046 BKN055 OVC085 12/10 A2988 RMK AO2 SLP119 T01220100 TSNO
Loading
Personal Weather Stations






























Interactive Weather Map New forecast layout! Learn more

10-Day Weather Forecast

Advertisements
Track Severe Weather on mobile